Beacon packets - map view · info · telemetry · weather · raw · status · beacons · messages · bulletins · browse · moving · my account
Originating callsign:
Show:

Loading beacon packets...

APRS beacon packets are stored for 14 days. It is possible to search using wildcards (*?) after a prefix.

2019-05-26 01:42:07 EDT: IR2BZ>BEACON: CRLNet.010 - SysOp IZ2FTR - Tullio - iz2ftr@crlnet.it
2019-05-26 01:42:10 EDT: W5MCC-7>ID: SELCOM New Orleans APRS iGate. Connect to .
2019-05-26 01:42:10 EDT: YUCCA>BEACON: YUCCA/W6BA APRS DIGI YUCCA VALLEY
2019-05-26 01:42:14 EDT: HNATIG>CQ: Ó·Ÿ " ÿ \ å ÿ Ô ÿ ÿ ] ÿ ] ^ ^ ^ ^ ] _ ^ ] ] \ \ ÿÀ ÿ „ Ä ” " " ! " ! ! " " !À
2019-05-26 01:42:14 EDT: HNATIG>CQ: þ„ æÿ-þ¥üW þÿ š °
2019-05-26 01:42:21 EDT: K2LM-11>UIDIGI: UIDIGI 1.9
2019-05-26 01:42:22 EDT: NE4SC-12>ID: NE4SC-12/R NE4SC-1/B
2019-05-26 01:42:22 EDT: W0ZRT-7>UIDIGI: UIDIGI 1.9
2019-05-26 01:42:24 EDT: JAYUYA>BEACON: KP4IA APRS DIGI EL CACIQUE - JAYUYA - KP4IA-3 PBBS 144.390 MHz
2019-05-26 01:42:27 EDT: SR2NDF>UIDIGI: UIDIGI 1.9
2019-05-26 01:42:15 EDT: F5TND-4>ID: F5TND/R
2019-05-26 01:42:17 EDT: 9A3XK>BEACON: CRLNet.108 - SysOp 9a3XK & 9a7kxp-Internet via DJWIRELES http://djw.hr/
2019-05-26 01:42:24 EDT: DK4SDR-3>UIDIGI: UIDIGI 1.9
2019-05-26 01:42:27 EDT: VA7DXH>ID: LADYSMITH BPQ NODE (VA7DXH-8)
2019-05-26 01:42:27 EDT: 9A3XK>BEACON: Power 9W Gain 3dB Height 240m Ant omni
2019-05-26 01:42:32 EDT: KB8UVN-7>ID: Network node (JTSW1)
2019-05-26 01:42:33 EDT: K5WH-8>ID: K5WH-8/R MARATH/D 0/B
2019-05-26 01:42:33 EDT: W8UKE-1>UIDIGI: UIDIGI 1.9
2019-05-26 01:42:53 EDT: K3GJ-13>BEACON: K3GJ-13 APRS DIGIPETER
2019-05-26 01:42:54 EDT: W2WCR-2>UIDIGI: UIDIGI 1.9
2019-05-26 01:42:56 EDT: OK1ALX>CQ: └└ éá£êbf`₧ûbûÉÿΓ₧û`ääîe ≡;ER-OK0BBF*111111z5003.07NE01641.58E0439.125MHz T088 -760 #321243 SuchyVrch
2019-05-26 01:42:59 EDT: W0OFK-4>BEACON: 146.730- *111111z4201.88N/09721.45WrT131 Net 7:30pm Mon EVARC
2019-05-26 01:42:59 EDT: KB4VSP-3>BEACON: <UI>:
2019-05-26 01:43:01 EDT: WB5LJZ-5>ID: DEVINE,TX/MEDINA Co.
2019-05-26 01:43:04 EDT: HG8GL-1>CQ: * HG8GL QRV >>> *
2019-05-26 01:43:04 EDT: KK7DO-1>BEACON: 145.430- PL 123.0 Repeater
2019-05-26 01:43:05 EDT: WX6HNX-6>BEACON: National Weather Service remote weather station Huron, CA
2019-05-26 01:43:05 EDT: WHTNY>BEACON: KD5DMT-5 APRS Digipeater
2019-05-26 01:43:07 EDT: K4WAM-1>ID: K4WAM/R
2019-05-26 01:43:11 EDT: W3TWA-3>ID: W3TWA/R
2019-05-26 01:42:34 EDT: K2KZ-4>ID: K2KZ/R
2019-05-26 01:42:36 EDT: VE3ORC-4>BEACON: Next Meeting March 13, 2019 1900 hrs
2019-05-26 01:42:39 EDT: K9BIF-7>ID: K9BIF-7 BPQ Net/Rom Switch
2019-05-26 01:42:40 EDT: N7JJY-6>BEACON: TESTING PATH TO GILLETTE
2019-05-26 01:42:41 EDT: WX5II-11>ID: W.BEXAR Co.
2019-05-26 01:42:45 EDT: HNATIG>CQ: TIGRISAT ABACUS BEACON
2019-05-26 01:42:54 EDT: W2CMC-15>BEACON: Cape May County NJ RACES/ARES
2019-05-26 01:43:11 EDT: NE4SC-12>ID: NE4SC-12/R NE4SC-1/B
2019-05-26 01:43:13 EDT: KE6CAC>ID: KE6CAC/R
2019-05-26 01:43:14 EDT: WP4PWS>CQ: Me pueden encontrar usualmente en la frequencia 147.525 mhz simplex utilizando C4FM
2019-05-26 01:43:17 EDT: VK3REB-1>UIDIGI: UIDIGI 1.9
2019-05-26 01:43:17 EDT: NG5V-2>UIDIGI: UIDIGI 1.9
2019-05-26 01:43:18 EDT: N0QK-8>BEACON: Reed's Landing Digi rmarsole@hbci.com
2019-05-26 01:43:18 EDT: MTCLMN>BEACON: W8FSM/WA8MAC
2019-05-26 01:43:19 EDT: KS0SA-15>ID: KS0SA-15/R KC0BS-1/B
2019-05-26 01:43:21 EDT: SNOBNK>BEACON: 146.62T100 Cascade, ID APRS 8322 ft www.voiceofidaho.org (APRS Info: www.nwaprs.org) W7VOI
2019-05-26 01:43:22 EDT: OE9XPT>UIDIGI: UIDIGI 1.9
2019-05-26 01:43:23 EDT: MB7UJ>ID: MB7UJ/R MB7UJ/D
2019-05-26 01:43:28 EDT: LA3NSB>BEACON: IGATE LA3NSB
2019-05-26 01:43:29 EDT: JG6YDA-1>UIDIGI: UIDIGI 1.9
< previous
FAQ · Blog · Discussion group · Linking to aprs.fi · AIS sites · Service status · Database statistics · Advertising on aprs.fi · Technical details · API · Change log · Planned changes · Credits and thanks · Terms Of Service · iPhone/iPad APRS